Butte Meadows, California
Current Conditions -  °F | °C
As of 2:47 PM on Tuesday 27 Jan 2015 (Local Time) from KCIC Reporting Station
Overcast Overcast  
Wind Chill: 57°   Ceiling: 12000
Heat Index: 57°   Visibility: 10mi
Dew Point: 50°   Wind: 7mph
Humidity: 77%   Direction: 140°SE
Pressure: 30.23"   Gusts: NA
Location:  40.1192°N, 121.505°W
Report Text: KCIC 272247Z 14006KT 10SM FEW070 BKN120 OVC180 14/10 A3023
Loading
Personal Weather Stations






























Interactive Weather Map New forecast layout! Learn more

10-Day Weather Forecast

Advertisements
Track Severe Weather on mobile